Argenta, Texas
Current Conditions -  °F | °C
As of 4:55 PM on Thursday 18 Dec 2014 (Local Time) from KRBO Reporting Station
Overcast Overcast  
Wind Chill: 75°   Ceiling: 5000
Heat Index: 75°   Visibility: 10mi
Dew Point: 67°   Wind: 12mph
Humidity: 77%   Direction: 150°SSE
Pressure: 29.96"   Gusts: NA
Location:  28.0654°N, 97.7489°W
Report Text: KRBO 182255Z AUTO 15010KT 10SM SCT036 BKN050 OVC090 24/20 A2996 RMK AO2 T02400197
Loading
Personal Weather Stations






























Interactive Weather Map New forecast layout! Learn more

10-Day Weather Forecast

Advertisements
Track Severe Weather on mobile